Time,TemperatureF,DewpointF,PressureIn,WindDirection,WindDirectionDegrees,WindSpeedMPH,WindSpeedGustMPH,Humidity,HourlyPrecipIn,Conditions,Clouds,dailyrainin,SoftwareType,DateUTC
2013-05-13 00:05:00,28.7,25.9,30.10,WNW,283,0.0,19.0,89,0.00,,,0.00,Wunderground v.1.15,2013-05-13 04:05:00,
2013-05-13 00:10:00,28.5,25.7,30.10,WNW,283,0.0,19.0,89,0.00,,,0.00,Wunderground v.1.15,2013-05-13 04:10:00,
2013-05-13 00:20:00,28.1,25.5,30.10,WSW,238,0.0,19.0,90,0.00,,,0.00,Wunderground v.1.15,2013-05-13 04:20:00,
2013-05-13 00:25:00,28.1,25.5,30.10,West,272,0.0,19.0,90,0.00,,,0.00,Wunderground v.1.15,2013-05-13 04:25:00,
2013-05-13 00:35:00,29.0,26.2,30.10,NNW,342,0.0,19.0,89,0.00,,,0.00,Wunderground v.1.15,2013-05-13 04:35:00,
2013-05-13 00:40:00,30.1,26.4,30.10,NW,321,0.0,19.0,86,0.00,,,0.00,Wunderground v.1.15,2013-05-13 04:40:00,
2013-05-13 00:45:00,31.0,26.1,30.10,NW,307,1.0,19.0,82,0.00,,,0.00,Wunderground v.1.15,2013-05-13 04:45:00,
2013-05-13 00:55:00,31.9,26.1,30.10,NW,323,1.0,19.0,79,0.00,,,0.00,Wunderground v.1.15,2013-05-13 04:55:00,
2013-05-13 01:00:00,32.0,25.9,30.10,NNW,330,1.0,1.0,78,0.00,,,0.00,Wunderground v.1.15,2013-05-13 05:00:00,
2013-05-13 01:10:00,31.1,25.3,30.10,NNW,330,0.0,19.0,79,0.00,,,0.00,Wunderground v.1.15,2013-05-13 05:10:00,
2013-05-13 01:20:00,30.6,25.2,30.10,NNW,330,0.0,19.0,80,0.00,,,0.00,Wunderground v.1.15,2013-05-13 05:20:00,
2013-05-13 01:25:00,30.1,25.0,30.10,NNW,330,0.0,19.0,81,0.00,,,0.00,Wunderground v.1.15,2013-05-13 05:25:00,
2013-05-13 01:30:00,29.8,25.0,30.10,NNW,330,0.0,19.0,82,0.00,,,0.00,Wunderground v.1.15,2013-05-13 05:30:00,
2013-05-13 01:40:00,28.9,25.0,30.10,NNW,330,0.0,19.0,85,0.00,,,0.00,Wunderground v.1.15,2013-05-13 05:40:00,
2013-05-13 01:45:00,28.4,24.7,30.10,NNW,330,0.0,19.0,86,0.00,,,0.00,Wunderground v.1.15,2013-05-13 05:45:00,
2013-05-13 01:55:00,27.6,24.5,30.11,SW,221,0.0,19.0,88,0.00,,,0.00,Wunderground v.1.15,2013-05-13 05:55:00,
2013-05-13 02:00:00,27.3,24.5,30.11,SW,220,0.0,19.0,89,0.00,,,0.00,Wunderground v.1.15,2013-05-13 06:00:00,
2013-05-13 02:10:00,26.8,24.3,30.11,SW,220,0.0,19.0,90,0.00,,,0.00,Wunderground v.1.15,2013-05-13 06:10:00,
2013-05-13 02:20:00,26.7,24.4,30.11,West,267,0.0,19.0,91,0.00,,,0.00,Wunderground v.1.15,2013-05-13 06:20:00,
2013-05-13 02:25:00,26.7,24.7,30.11,WSW,257,0.0,19.0,92,0.00,,,0.00,Wunderground v.1.15,2013-05-13 06:25:00,
2013-05-13 02:35:00,26.6,24.6,30.10,WNW,289,0.0,19.0,92,0.00,,,0.00,Wunderground v.1.15,2013-05-13 06:35:00,
2013-05-13 02:40:00,26.5,24.5,30.10,WNW,289,0.0,19.0,92,0.00,,,0.00,Wunderground v.1.15,2013-05-13 06:40:00,
2013-05-13 02:45:00,26.5,24.8,30.10,WNW,289,0.0,19.0,93,0.00,,,0.00,Wunderground v.1.15,2013-05-13 06:45:00,
2013-05-13 02:55:00,26.6,24.8,30.10,WSW,248,0.0,19.0,93,0.00,,,0.00,Wunderground v.1.15,2013-05-13 06:55:00,
2013-05-13 03:00:00,26.8,25.0,30.10,WSW,239,0.0,19.0,93,0.00,,,0.00,Wunderground v.1.15,2013-05-13 07:00:00,
2013-05-13 03:10:00,27.3,25.5,30.10,SW,217,0.0,19.0,93,0.00,,,0.00,Wunderground v.1.15,2013-05-13 07:10:00,
2013-05-13 03:15:00,27.6,25.6,30.10,WSW,245,0.0,19.0,92,0.00,,,0.00,Wunderground v.1.15,2013-05-13 07:15:00,
2013-05-13 03:25:00,28.0,25.4,30.10,West,262,0.0,19.0,90,0.00,,,0.00,Wunderground v.1.15,2013-05-13 07:25:00,
2013-05-13 03:30:00,28.0,25.2,30.10,SW,224,0.0,19.0,89,0.00,,,0.00,Wunderground v.1.15,2013-05-13 07:30:00,
2013-05-13 03:40:00,27.9,25.1,30.11,SW,217,0.0,19.0,89,0.00,,,0.00,Wunderground v.1.15,2013-05-13 07:40:00,
2013-05-13 03:45:00,27.6,24.8,30.11,SW,217,0.0,19.0,89,0.00,,,0.00,Wunderground v.1.15,2013-05-13 07:45:00,
2013-05-13 03:55:00,27.3,24.8,30.11,WSW,248,0.0,19.0,90,0.00,,,0.00,Wunderground v.1.15,2013-05-13 07:55:00,
2013-05-13 04:00:00,27.5,25.0,30.11,WSW,256,0.0,19.0,90,0.00,,,0.00,Wunderground v.1.15,2013-05-13 08:00:00,
2013-05-13 04:10:00,27.2,24.7,30.11,WSW,255,0.0,19.0,90,0.00,,,0.00,Wunderground v.1.15,2013-05-13 08:10:00,
2013-05-13 04:15:00,27.1,24.6,30.11,WSW,248,0.0,19.0,90,0.00,,,0.00,Wunderground v.1.15,2013-05-13 08:15:00,
2013-05-13 04:25:00,26.9,24.6,30.11,WSW,248,0.0,19.0,91,0.00,,,0.00,Wunderground v.1.15,2013-05-13 08:25:00,
2013-05-13 04:35:00,26.7,24.7,30.11,WSW,244,0.0,19.0,92,0.00,,,0.00,Wunderground v.1.15,2013-05-13 08:35:00,
2013-05-13 04:40:00,26.7,24.4,30.11,WSW,245,0.0,19.0,91,0.00,,,0.00,Wunderground v.1.15,2013-05-13 08:40:00,
2013-05-13 04:45:00,26.6,24.6,30.11,WSW,244,0.0,19.0,92,0.00,,,0.00,Wunderground v.1.15,2013-05-13 08:45:00,
2013-05-13 04:55:00,26.7,24.7,30.11,SSE,164,0.0,19.0,92,0.00,,,0.00,Wunderground v.1.15,2013-05-13 08:55:00,
2013-05-13 05:00:00,26.8,24.8,30.11,SW,236,0.0,19.0,92,0.00,,,0.00,Wunderground v.1.15,2013-05-13 09:00:00,
2013-05-13 05:10:00,26.9,24.6,30.11,WSW,255,0.0,19.0,91,0.00,,,0.00,Wunderground v.1.15,2013-05-13 09:10:00,
2013-05-13 05:15:00,26.8,24.8,30.11,West,264,0.0,19.0,92,0.00,,,0.00,Wunderground v.1.15,2013-05-13 09:15:00,
2013-05-13 05:25:00,27.0,25.0,30.11,WSW,240,0.0,19.0,92,0.00,,,0.00,Wunderground v.1.15,2013-05-13 09:25:00,
2013-05-13 05:30:00,27.1,25.3,30.11,WSW,239,0.0,19.0,93,0.00,,,0.00,Wunderground v.1.15,2013-05-13 09:30:00,
2013-05-13 05:40:00,27.5,25.7,30.11,West,268,0.0,19.0,93,0.00,,,0.00,Wunderground v.1.15,2013-05-13 09:40:00,
2013-05-13 05:45:00,27.5,25.7,30.11,West,268,0.0,19.0,93,0.00,,,0.00,Wunderground v.1.15,2013-05-13 09:45:00,
2013-05-13 05:55:00,27.4,25.6,30.11,WSW,250,0.0,19.0,93,0.00,,,0.00,Wunderground v.1.15,2013-05-13 09:55:00,
2013-05-13 06:00:00,27.4,25.9,30.11,WSW,250,0.0,19.0,94,0.00,,,0.00,Wunderground v.1.15,2013-05-13 10:00:00,
2013-05-13 06:10:00,27.3,25.8,30.11,West,269,0.0,19.0,94,0.00,,,0.00,Wunderground v.1.15,2013-05-13 10:10:00,
2013-05-13 06:15:00,27.4,26.2,30.11,WSW,237,0.0,19.0,95,0.00,,,0.00,Wunderground v.1.15,2013-05-13 10:15:00,
2013-05-13 06:25:00,27.4,26.2,30.11,WSW,237,0.0,19.0,95,0.00,,,0.00,Wunderground v.1.15,2013-05-13 10:25:00,
2013-05-13 06:35:00,27.7,26.5,30.11,WSW,237,0.0,19.0,95,0.00,,,0.00,Wunderground v.1.15,2013-05-13 10:35:00,
2013-05-13 06:40:00,28.3,27.1,30.11,SSW,209,0.0,19.0,95,0.00,,,0.00,Wunderground v.1.15,2013-05-13 10:40:00,
2013-05-13 06:50:00,29.8,28.5,30.11,SW,232,0.0,19.0,95,0.00,,,0.00,Wunderground v.1.15,2013-05-13 10:50:00,
2013-05-13 07:00:00,31.3,29.8,30.12,WSW,258,0.0,19.0,94,0.00,,,0.00,Wunderground v.1.15,2013-05-13 11:00:00,
2013-05-13 07:05:00,32.0,30.5,30.12,WSW,241,0.0,19.0,94,0.00,,,0.00,Wunderground v.1.15,2013-05-13 11:05:00,
2013-05-13 07:15:00,32.8,31.0,30.12,SW,236,0.0,19.0,93,0.00,,,0.00,Wunderground v.1.15,2013-05-13 11:15:00,
2013-05-13 07:20:00,33.3,31.5,30.13,SW,235,0.0,19.0,93,0.00,,,0.00,Wunderground v.1.15,2013-05-13 11:20:00,
2013-05-13 07:25:00,33.7,31.9,30.13,WSW,250,0.0,19.0,93,0.00,,,0.00,Wunderground v.1.15,2013-05-13 11:25:00,
2013-05-13 07:35:00,34.6,32.5,30.13,WSW,240,0.0,19.0,92,0.00,,,0.00,Wunderground v.1.15,2013-05-13 11:35:00,
2013-05-13 07:40:00,35.0,32.9,30.14,WSW,248,0.0,19.0,92,0.00,,,0.00,Wunderground v.1.15,2013-05-13 11:40:00,
2013-05-13 07:50:00,35.2,32.6,30.14,NW,321,1.0,19.0,90,0.00,,,0.00,Wunderground v.1.15,2013-05-13 11:50:00,
2013-05-13 07:55:00,35.1,32.2,30.14,WSW,257,1.0,19.0,89,0.00,,,0.00,Wunderground v.1.15,2013-05-13 11:55:00,
2013-05-13 08:05:00,35.5,32.9,30.14,SW,230,1.0,19.0,90,0.00,,,0.00,Wunderground v.1.15,2013-05-13 12:05:00,
2013-05-13 08:10:00,35.9,33.0,30.15,WNW,286,1.0,1.0,89,0.00,,,0.00,Wunderground v.1.15,2013-05-13 12:10:00,
2013-05-13 08:20:00,36.3,33.1,30.15,WNW,292,1.0,1.0,88,0.00,,,0.00,Wunderground v.1.15,2013-05-13 12:20:00,
2013-05-13 08:25:00,36.5,32.7,30.15,WNW,291,1.0,1.0,86,0.00,,,0.00,Wunderground v.1.15,2013-05-13 12:25:00,
2013-05-13 08:30:00,36.6,32.2,30.15,NNW,331,2.0,3.0,84,0.00,,,0.00,Wunderground v.1.15,2013-05-13 12:30:00,
2013-05-13 08:35:00,36.9,32.5,30.15,WNW,289,3.0,3.0,84,0.00,,,0.00,Wunderground v.1.15,2013-05-13 12:35:00,
2013-05-13 08:45:00,38.0,33.0,30.15,WNW,290,2.0,2.0,82,0.00,,,0.00,Wunderground v.1.15,2013-05-13 12:45:00,
2013-05-13 08:50:00,38.6,32.6,30.16,West,272,2.0,2.0,79,0.00,,,0.00,Wunderground v.1.15,2013-05-13 12:50:00,
2013-05-13 09:00:00,39.4,32.1,30.16,West,262,3.0,4.0,75,0.00,,,0.00,Wunderground v.1.15,2013-05-13 13:00:00,
2013-05-13 09:05:00,39.7,32.1,30.16,WNW,290,3.0,6.0,74,0.00,,,0.00,Wunderground v.1.15,2013-05-13 13:05:00,
2013-05-13 09:15:00,40.2,32.2,30.16,NW,323,3.0,6.0,73,0.00,,,0.00,Wunderground v.1.15,2013-05-13 13:15:00,
2013-05-13 09:20:00,40.7,32.0,30.16,NW,321,3.0,3.0,71,0.00,,,0.00,Wunderground v.1.15,2013-05-13 13:20:00,
2013-05-13 09:30:00,40.9,30.0,30.16,NW,314,3.0,6.0,65,0.00,,,0.00,Wunderground v.1.15,2013-05-13 13:30:00,
2013-05-13 09:35:00,40.9,31.1,30.16,NNW,335,4.0,6.0,68,0.00,,,0.00,Wunderground v.1.15,2013-05-13 13:35:00,
2013-05-13 09:45:00,41.3,30.0,30.16,NW,306,3.0,6.0,64,0.00,,,0.00,Wunderground v.1.15,2013-05-13 13:45:00,
2013-05-13 09:50:00,41.6,28.3,30.17,WNW,288,4.0,6.0,59,0.00,,,0.00,Wunderground v.1.15,2013-05-13 13:50:00,
2013-05-13 09:55:00,42.0,29.1,30.17,WNW,290,3.0,6.0,60,0.00,,,0.00,Wunderground v.1.15,2013-05-13 13:55:00,
2013-05-13 10:05:00,42.4,28.7,30.17,NNW,333,3.0,6.0,58,0.00,,,0.00,Wunderground v.1.15,2013-05-13 14:05:00,
2013-05-13 10:10:00,42.5,28.3,30.17,WNW,294,4.0,6.0,57,0.00,,,0.00,Wunderground v.1.15,2013-05-13 14:10:00,
2013-05-13 10:20:00,42.7,28.5,30.16,WSW,248,4.0,6.0,57,0.00,,,0.00,Wunderground v.1.15,2013-05-13 14:20:00,
2013-05-13 10:25:00,42.9,27.8,30.16,NW,316,4.0,6.0,55,0.00,,,0.00,Wunderground v.1.15,2013-05-13 14:25:00,
2013-05-13 10:35:00,43.2,26.7,30.16,NW,319,4.0,6.0,52,0.00,,,0.00,Wunderground v.1.15,2013-05-13 14:35:00,
2013-05-13 10:40:00,43.7,29.0,30.16,NW,320,4.0,6.0,56,0.00,,,0.00,Wunderground v.1.15,2013-05-13 14:40:00,
2013-05-13 10:45:00,43.7,28.1,30.16,North,357,3.0,6.0,54,0.00,,,0.00,Wunderground v.1.15,2013-05-13 14:45:00,
2013-05-13 10:55:00,42.3,26.4,30.16,NNW,328,3.0,6.0,53,0.00,,,0.00,Wunderground v.1.15,2013-05-13 14:55:00,
2013-05-13 11:00:00,43.0,26.6,30.16,SW,216,3.0,6.0,52,0.00,,,0.00,Wunderground v.1.15,2013-05-13 15:00:00,
2013-05-13 11:10:00,44.0,26.5,30.16,NNW,333,3.0,6.0,50,0.00,,,0.00,Wunderground v.1.15,2013-05-13 15:10:00,
2013-05-13 11:15:00,43.7,25.3,30.17,WNW,301,5.0,8.0,48,0.00,,,0.00,Wunderground v.1.15,2013-05-13 15:15:00,
2013-05-13 11:25:00,44.1,27.1,30.17,West,278,4.0,7.0,51,0.00,,,0.00,Wunderground v.1.15,2013-05-13 15:25:00,
2013-05-13 11:30:00,44.5,25.5,30.17,WSW,240,3.0,6.0,47,0.00,,,0.00,Wunderground v.1.15,2013-05-13 15:30:00,
2013-05-13 11:40:00,44.8,26.3,30.17,WSW,250,4.0,4.0,48,0.00,,,0.00,Wunderground v.1.15,2013-05-13 15:40:00,
2013-05-13 11:45:00,44.7,25.7,30.17,NW,304,4.0,6.0,47,0.00,,,0.00,Wunderground v.1.15,2013-05-13 15:45:00,
2013-05-13 11:50:00,44.5,23.4,30.17,West,279,4.0,6.0,43,0.00,,,0.00,Wunderground v.1.15,2013-05-13 15:50:00,
2013-05-13 12:00:00,44.7,24.6,30.17,NW,304,4.0,12.0,45,0.00,,,0.00,Wunderground v.1.15,2013-05-13 16:00:00,
2013-05-13 12:05:00,44.3,23.2,30.17,WNW,300,5.0,12.0,43,0.00,,,0.00,Wunderground v.1.15,2013-05-13 16:05:00,
2013-05-13 12:15:00,45.0,26.0,30.17,NW,319,6.0,6.0,47,0.00,,,0.00,Wunderground v.1.15,2013-05-13 16:15:00,
2013-05-13 12:20:00,45.5,24.3,30.17,WNW,296,5.0,5.0,43,0.00,,,0.00,Wunderground v.1.15,2013-05-13 16:20:00,
2013-05-13 12:30:00,44.8,23.6,30.17,West,260,5.0,7.0,43,0.00,,,0.00,Wunderground v.1.15,2013-05-13 16:30:00,
2013-05-13 12:35:00,45.0,22.7,30.17,NNW,333,5.0,7.0,41,0.00,,,0.00,Wunderground v.1.15,2013-05-13 16:35:00,
2013-05-13 12:45:00,45.9,24.6,30.17,NNW,335,5.0,6.0,43,0.00,,,0.00,Wunderground v.1.15,2013-05-13 16:45:00,
2013-05-13 12:50:00,46.3,22.7,30.17,West,276,4.0,6.0,39,0.00,,,0.00,Wunderground v.1.15,2013-05-13 16:50:00,
2013-05-13 13:00:00,46.2,23.8,30.17,North,354,4.0,10.0,41,0.00,,,0.00,Wunderground v.1.15,2013-05-13 17:00:00,
2013-05-13 13:05:00,46.5,24.0,30.17,NW,306,4.0,10.0,41,0.00,,,0.00,Wunderground v.1.15,2013-05-13 17:05:00,
2013-05-13 13:10:00,46.8,25.5,30.17,NNW,331,4.0,6.0,43,0.00,,,0.00,Wunderground v.1.15,2013-05-13 17:10:00,
2013-05-13 13:20:00,46.5,25.2,30.17,South,170,5.0,5.0,43,0.00,,,0.00,Wunderground v.1.15,2013-05-13 17:20:00,
2013-05-13 13:25:00,46.4,23.4,30.17,WNW,300,4.0,6.0,40,0.00,,,0.00,Wunderground v.1.15,2013-05-13 17:25:00,
2013-05-13 13:35:00,46.8,24.9,30.17,NW,305,4.0,6.0,42,0.00,,,0.00,Wunderground v.1.15,2013-05-13 17:35:00,
2013-05-13 13:40:00,46.7,23.6,30.17,NE,54,4.0,4.0,40,0.00,,,0.00,Wunderground v.1.15,2013-05-13 17:40:00,
2013-05-13 13:45:00,46.7,21.8,30.17,WNW,300,4.0,6.0,37,0.00,,,0.00,Wunderground v.1.15,2013-05-13 17:45:00,
2013-05-13 13:55:00,47.1,22.1,30.17,NNE,28,3.0,9.0,37,0.00,,,0.00,Wunderground v.1.15,2013-05-13 17:55:00,
2013-05-13 14:00:00,47.4,24.3,30.17,NNW,344,4.0,4.0,40,0.00,,,0.00,Wunderground v.1.15,2013-05-13 18:00:00,
2013-05-13 14:10:00,47.3,25.3,30.17,NNW,335,4.0,6.0,42,0.00,,,0.00,Wunderground v.1.15,2013-05-13 18:10:00,
2013-05-13 14:15:00,47.2,22.9,30.16,NW,323,4.0,6.0,38,0.00,,,0.00,Wunderground v.1.15,2013-05-13 18:15:00,
2013-05-13 14:25:00,47.3,23.6,30.16,WNW,295,4.0,6.0,39,0.00,,,0.00,Wunderground v.1.15,2013-05-13 18:25:00,
2013-05-13 14:30:00,47.6,23.8,30.16,SSW,206,3.0,6.0,39,0.00,,,0.00,Wunderground v.1.15,2013-05-13 18:30:00,
2013-05-13 14:40:00,48.2,25.6,30.16,West,261,3.0,3.0,41,0.00,,,0.00,Wunderground v.1.15,2013-05-13 18:40:00,
2013-05-13 14:45:00,48.6,24.1,30.15,SE,141,2.0,6.0,38,0.00,,,0.00,Wunderground v.1.15,2013-05-13 18:45:00,
2013-05-13 14:55:00,48.3,25.7,30.15,NW,316,3.0,6.0,41,0.00,,,0.00,Wunderground v.1.15,2013-05-13 18:55:00,
2013-05-13 15:00:00,48.2,25.0,30.15,ENE,58,4.0,13.0,40,0.00,,,0.00,Wunderground v.1.15,2013-05-13 19:00:00,
2013-05-13 15:05:00,48.3,25.1,30.15,NW,324,5.0,13.0,40,0.00,,,0.00,Wunderground v.1.15,2013-05-13 19:05:00,
2013-05-13 15:15:00,48.6,26.5,30.14,West,260,4.0,6.0,42,0.00,,,0.00,Wunderground v.1.15,2013-05-13 19:15:00,
2013-05-13 15:20:00,48.6,23.5,30.14,SE,136,4.0,4.0,37,0.00,,,0.00,Wunderground v.1.15,2013-05-13 19:20:00,
2013-05-13 15:30:00,48.9,24.4,30.14,WSW,255,3.0,3.0,38,0.00,,,0.00,Wunderground v.1.15,2013-05-13 19:30:00,
2013-05-13 15:35:00,48.7,22.9,30.14,NW,321,4.0,4.0,36,0.00,,,0.00,Wunderground v.1.15,2013-05-13 19:35:00,
2013-05-13 15:40:00,49.0,25.7,30.13,WNW,290,4.0,7.0,40,0.00,,,0.00,Wunderground v.1.15,2013-05-13 19:40:00,
2013-05-13 15:50:00,48.4,25.2,30.13,NW,316,5.0,7.0,40,0.00,,,0.00,Wunderground v.1.15,2013-05-13 19:50:00,
2013-05-13 15:55:00,49.0,23.2,30.13,WSW,250,4.0,7.0,36,0.00,,,0.00,Wunderground v.1.15,2013-05-13 19:55:00,
2013-05-13 16:05:00,50.0,24.1,30.13,NNW,340,2.0,5.0,36,0.00,,,0.00,Wunderground v.1.15,2013-05-13 20:05:00,
2013-05-13 16:10:00,49.3,24.1,30.13,NW,307,3.0,6.0,37,0.00,,,0.00,Wunderground v.1.15,2013-05-13 20:10:00,
2013-05-13 16:20:00,49.1,22.6,30.13,SSW,209,4.0,4.0,35,0.00,,,0.00,Wunderground v.1.15,2013-05-13 20:20:00,
2013-05-13 16:25:00,49.5,23.6,30.12,WNW,302,4.0,6.0,36,0.00,,,0.00,Wunderground v.1.15,2013-05-13 20:25:00,
2013-05-13 16:35:00,50.6,25.3,30.12,NW,322,3.0,6.0,37,0.00,,,0.00,Wunderground v.1.15,2013-05-13 20:35:00,
2013-05-13 16:40:00,50.5,22.4,30.12,WSW,241,3.0,6.0,33,0.00,,,0.00,Wunderground v.1.15,2013-05-13 20:40:00,
2013-05-13 16:50:00,49.4,21.5,30.12,WNW,286,4.0,6.0,33,0.00,,,0.00,Wunderground v.1.15,2013-05-13 20:50:00,
2013-05-13 16:55:00,49.0,21.1,30.12,NNW,339,4.0,6.0,33,0.00,,,0.00,Wunderground v.1.15,2013-05-13 20:55:00,
2013-05-13 17:00:00,49.7,23.8,30.12,NW,317,2.0,6.0,36,0.00,,,0.00,Wunderground v.1.15,2013-05-13 21:00:00,
2013-05-13 17:10:00,49.6,21.6,30.12,WNW,300,3.0,3.0,33,0.00,,,0.00,Wunderground v.1.15,2013-05-13 21:10:00,
2013-05-13 17:20:00,51.0,26.3,30.11,SSW,194,2.0,2.0,38,0.00,,,0.00,Wunderground v.1.15,2013-05-13 21:20:00,
2013-05-13 17:30:00,50.1,22.8,30.11,WNW,300,3.0,6.0,34,0.00,,,0.00,Wunderground v.1.15,2013-05-13 21:30:00,
2013-05-13 17:35:00,50.1,22.1,30.11,SW,234,3.0,6.0,33,0.00,,,0.00,Wunderground v.1.15,2013-05-13 21:35:00,
2013-05-13 17:40:00,50.5,22.4,30.10,WNW,299,3.0,6.0,33,0.00,,,0.00,Wunderground v.1.15,2013-05-13 21:40:00,
2013-05-13 17:45:00,50.6,25.3,30.10,West,271,2.0,6.0,37,0.00,,,0.00,Wunderground v.1.15,2013-05-13 21:45:00,
2013-05-13 17:55:00,50.6,21.8,30.11,SSW,203,2.0,6.0,32,0.00,,,0.00,Wunderground v.1.15,2013-05-13 21:55:00,
2013-05-13 18:00:00,50.7,21.9,30.11,NW,323,3.0,6.0,32,0.00,,,0.00,Wunderground v.1.15,2013-05-13 22:00:00,
2013-05-13 18:10:00,50.5,20.9,30.11,SSW,212,3.0,6.0,31,0.00,,,0.00,Wunderground v.1.15,2013-05-13 22:10:00,
2013-05-13 18:15:00,50.8,21.2,30.11,WSW,251,3.0,6.0,31,0.00,,,0.00,Wunderground v.1.15,2013-05-13 22:15:00,
2013-05-13 18:20:00,51.1,22.2,30.11,WSW,243,3.0,3.0,32,0.00,,,0.00,Wunderground v.1.15,2013-05-13 22:20:00,
2013-05-13 18:30:00,50.8,21.2,30.11,West,278,2.0,2.0,31,0.00,,,0.00,Wunderground v.1.15,2013-05-13 22:30:00,
2013-05-13 18:40:00,50.3,21.5,30.11,SW,234,2.0,6.0,32,0.00,,,0.00,Wunderground v.1.15,2013-05-13 22:40:00,
2013-05-13 18:50:00,49.7,21.0,30.11,WSW,256,2.0,2.0,32,0.00,,,0.00,Wunderground v.1.15,2013-05-13 22:50:00,
2013-05-13 18:55:00,49.9,21.9,30.11,WSW,254,1.0,6.0,33,0.00,,,0.00,Wunderground v.1.15,2013-05-13 22:55:00,
2013-05-13 19:00:00,50.0,23.4,30.10,SW,236,0.0,6.0,35,0.00,,,0.00,Wunderground v.1.15,2013-05-13 23:00:00,
2013-05-13 19:10:00,49.6,23.0,30.11,WSW,257,2.0,6.0,35,0.00,,,0.00,Wunderground v.1.15,2013-05-13 23:10:00,
2013-05-13 19:15:00,49.3,20.6,30.10,SW,220,2.0,6.0,32,0.00,,,0.00,Wunderground v.1.15,2013-05-13 23:15:00,
2013-05-13 19:25:00,48.9,22.4,30.10,West,280,1.0,6.0,35,0.00,,,0.00,Wunderground v.1.15,2013-05-13 23:25:00,
2013-05-13 19:30:00,48.6,21.5,30.10,SSW,204,1.0,6.0,34,0.00,,,0.00,Wunderground v.1.15,2013-05-13 23:30:00,
2013-05-13 19:35:00,48.3,21.9,30.09,SSW,210,1.0,6.0,35,0.00,,,0.00,Wunderground v.1.15,2013-05-13 23:35:00,
2013-05-13 19:45:00,47.9,21.5,30.09,SSW,193,1.0,6.0,35,0.00,,,0.00,Wunderground v.1.15,2013-05-13 23:45:00,
2013-05-13 19:55:00,47.6,21.9,30.09,SSW,212,2.0,2.0,36,0.00,,,0.00,Wunderground v.1.15,2013-05-13 23:55:00,
2013-05-13 20:00:00,47.4,23.0,30.08,South,188,1.0,6.0,38,0.00,,,0.00,Wunderground v.1.15,2013-05-14 00:00:00,
2013-05-13 20:05:00,47.3,22.3,30.08,SSW,213,2.0,6.0,37,0.00,,,0.00,Wunderground v.1.15,2013-05-14 00:05:00,
2013-05-13 20:15:00,47.2,24.1,30.07,SSW,212,2.0,6.0,40,0.00,,,0.00,Wunderground v.1.15,2013-05-14 00:15:00,
2013-05-13 20:20:00,47.1,22.8,30.07,SSW,199,1.0,6.0,38,0.00,,,0.00,Wunderground v.1.15,2013-05-14 00:20:00,
2013-05-13 20:30:00,46.8,25.5,30.07,SW,219,1.0,1.0,43,0.00,,,0.00,Wunderground v.1.15,2013-05-14 00:30:00,
2013-05-13 20:35:00,46.6,24.7,30.07,SW,217,0.0,6.0,42,0.00,,,0.00,Wunderground v.1.15,2013-05-14 00:35:00,
2013-05-13 20:45:00,46.2,25.5,30.07,SSW,198,0.0,6.0,44,0.00,,,0.00,Wunderground v.1.15,2013-05-14 00:45:00,
2013-05-13 20:50:00,46.0,25.8,30.07,SSW,198,1.0,6.0,45,0.00,,,0.00,Wunderground v.1.15,2013-05-14 00:50:00,
2013-05-13 20:55:00,45.8,25.1,30.06,South,186,1.0,6.0,44,0.00,,,0.00,Wunderground v.1.15,2013-05-14 00:55:00,
2013-05-13 21:05:00,45.4,26.3,30.06,South,188,1.0,6.0,47,0.00,,,0.00,Wunderground v.1.15,2013-05-14 01:05:00,
2013-05-13 21:10:00,45.3,25.7,30.06,SSW,200,1.0,1.0,46,0.00,,,0.00,Wunderground v.1.15,2013-05-14 01:10:00,
2013-05-13 21:20:00,45.0,26.0,30.06,South,185,1.0,6.0,47,0.00,,,0.00,Wunderground v.1.15,2013-05-14 01:20:00,
2013-05-13 21:25:00,44.9,25.9,30.06,SSW,197,1.0,6.0,47,0.00,,,0.00,Wunderground v.1.15,2013-05-14 01:25:00,
2013-05-13 21:35:00,44.8,24.7,30.05,SSW,206,2.0,6.0,45,0.00,,,0.00,Wunderground v.1.15,2013-05-14 01:35:00,
2013-05-13 21:40:00,44.8,24.7,30.05,South,189,2.0,6.0,45,0.00,,,0.00,Wunderground v.1.15,2013-05-14 01:40:00,
2013-05-13 21:50:00,44.7,24.6,30.05,SSW,205,2.0,2.0,45,0.00,,,0.00,Wunderground v.1.15,2013-05-14 01:50:00,
2013-05-13 21:55:00,44.4,24.4,30.06,SSW,205,1.0,6.0,45,0.00,,,0.00,Wunderground v.1.15,2013-05-14 01:55:00,
2013-05-13 22:05:00,43.9,26.0,30.06,SSW,207,0.0,6.0,49,0.00,,,0.00,Wunderground v.1.15,2013-05-14 02:05:00,
2013-05-13 22:10:00,43.7,26.3,30.06,SSW,207,0.0,6.0,50,0.00,,,0.00,Wunderground v.1.15,2013-05-14 02:10:00,
2013-05-13 22:15:00,43.5,27.0,30.06,SSW,200,0.0,6.0,52,0.00,,,0.00,Wunderground v.1.15,2013-05-14 02:15:00,
2013-05-13 22:25:00,43.2,25.8,30.06,SSW,201,0.0,6.0,50,0.00,,,0.00,Wunderground v.1.15,2013-05-14 02:25:00,
2013-05-13 22:30:00,43.2,25.8,30.06,SW,217,0.0,6.0,50,0.00,,,0.00,Wunderground v.1.15,2013-05-14 02:30:00,
2013-05-13 22:40:00,43.3,25.9,30.06,South,180,1.0,6.0,50,0.00,,,0.00,Wunderground v.1.15,2013-05-14 02:40:00,
2013-05-13 22:45:00,43.3,25.4,30.05,SSW,207,1.0,6.0,49,0.00,,,0.00,Wunderground v.1.15,2013-05-14 02:45:00,
2013-05-13 22:55:00,43.4,25.0,30.05,SSW,213,1.0,6.0,48,0.00,,,0.00,Wunderground v.1.15,2013-05-14 02:55:00,
2013-05-13 23:00:00,43.4,25.0,30.05,SSW,207,1.0,6.0,48,0.00,,,0.00,Wunderground v.1.15,2013-05-14 03:00:00,
2013-05-13 23:05:00,43.5,24.1,30.04,SW,224,1.0,6.0,46,0.00,,,0.00,Wunderground v.1.15,2013-05-14 03:05:00,
2013-05-13 23:15:00,43.6,23.6,30.04,SSW,213,1.0,6.0,45,0.00,,,0.00,Wunderground v.1.15,2013-05-14 03:15:00,
2013-05-13 23:20:00,43.6,24.2,30.04,SW,233,2.0,6.0,46,0.00,,,0.00,Wunderground v.1.15,2013-05-14 03:20:00,
2013-05-13 23:25:00,43.7,24.2,30.04,SW,230,2.0,6.0,46,0.00,,,0.00,Wunderground v.1.15,2013-05-14 03:25:00,
2013-05-13 23:35:00,43.7,24.2,30.04,SW,222,1.0,6.0,46,0.00,,,0.00,Wunderground v.1.15,2013-05-14 03:35:00,
2013-05-13 23:40:00,43.6,25.2,30.04,SW,217,1.0,6.0,48,0.00,,,0.00,Wunderground v.1.15,2013-05-14 03:40:00,
2013-05-13 23:50:00,43.6,25.2,30.04,SSW,208,0.0,6.0,48,0.00,,,0.00,Wunderground v.1.15,2013-05-14 03:50:00,
2013-05-13 23:55:00,43.5,24.6,30.03,South,180,0.0,6.0,47,0.00,,,0.00,Wunderground v.1.15,2013-05-14 03:55:00,